UAE29W OMDB-EDDF
Flight info
| Callsign | UAE29W |
|---|---|
| Flight time | N/A |
| Altitude | 31000 |
| Route | ANVIX L223 TARDI N629 BOTAM Y855 LAKLU/N0497F320 Q204 NALKI G652 TOKRA DCT ALROK DCT BOSOB DCT ITRUX Y511 PMA Z712 WEJ L677 DARAX/N0494F340 L677 GESON Q777 RASDA DCT OTHON UN128 RDS UL609 MES DCT EVIVI DCT OKANA DCT NIVIS DCT BABIT/N0473F360 DCT ARSIN DCT BUDEX DCT IPDUL DCT RAPET T170 VAGAB/N0436F240 T170 GAPLA T178 KERAX KERAX5A |
| Aircraft | B77W/H-SDE1E2E3FGHIJ2J3J4J5M1RWXY/LB1D1 |
Departure
| Time | 2026-04-25 15:14 |
|---|---|
| Airport | Dubai International Airport (OMDB) |
Arrival
| Time | N/A |
|---|---|
| Airport | Frankfurt Main Airport (EDDF) |
| Time | Latitude | Longitude | Altitude | Speed | Heading |
|---|---|---|---|---|---|
| 2026-04-25 14:31 | 25.24433 | 55.37214 | 31 ft | 0 kts | 211° |
| 2026-04-25 14:31 | 25.24476 | 55.37139 | 29 ft | 0 kts | 211° |
| 2026-04-25 15:03 | 25.24494 | 55.37151 | 31 ft | 4 kts | 211° |
| 2026-04-25 15:03 | 25.24517 | 55.37167 | 31 ft | 4 kts | 211° |
| 2026-04-25 15:04 | 25.24540 | 55.37181 | 31 ft | 4 kts | 192° |
| 2026-04-25 15:04 | 25.24564 | 55.37179 | 31 ft | 4 kts | 141° |
| 2026-04-25 15:04 | 25.24577 | 55.37162 | 29 ft | 4 kts | 122° |
| 2026-04-25 15:04 | 25.24591 | 55.37136 | 32 ft | 3 kts | 122° |
| 2026-04-25 15:05 | 25.24593 | 55.37132 | 32 ft | 0 kts | 122° |
| 2026-04-25 15:08 | 25.24576 | 55.37164 | 27 ft | 9 kts | 122° |
| 2026-04-25 15:08 | 25.24542 | 55.37223 | 30 ft | 9 kts | 122° |
| 2026-04-25 15:09 | 25.24509 | 55.37282 | 29 ft | 9 kts | 121° |
| 2026-04-25 15:09 | 25.24464 | 55.37361 | 31 ft | 14 kts | 122° |
| 2026-04-25 15:09 | 25.24360 | 55.37547 | 30 ft | 12 kts | 122° |
| 2026-04-25 15:10 | 25.24324 | 55.37609 | 30 ft | 8 kts | 123° |
| 2026-04-25 15:10 | 25.24306 | 55.37642 | 29 ft | 7 kts | 122° |
| 2026-04-25 15:10 | 25.24255 | 55.37735 | 27 ft | 7 kts | 116° |
| 2026-04-25 15:11 | 25.24254 | 55.37787 | 29 ft | 7 kts | 66° |
| 2026-04-25 15:11 | 25.24297 | 55.37812 | 27 ft | 7 kts | 16° |
| 2026-04-25 15:11 | 25.24343 | 55.37834 | 26 ft | 7 kts | 28° |
| 2026-04-25 15:12 | 25.24508 | 55.37955 | 29 ft | 19 kts | 34° |
| 2026-04-25 15:12 | 25.24616 | 55.38036 | 28 ft | 19 kts | 33° |
| 2026-04-25 15:12 | 25.24719 | 55.38106 | 30 ft | 12 kts | 31° |
| 2026-04-25 15:12 | 25.24753 | 55.38107 | 31 ft | 6 kts | 329° |
| 2026-04-25 15:13 | 25.24837 | 55.37967 | 30 ft | 34 kts | 301° |
| 2026-04-25 15:13 | 25.25577 | 55.36637 | 30 ft | 165 kts | 301° |
| 2026-04-25 15:13 | 25.26240 | 55.35442 | 222 ft | 193 kts | 302° |
| 2026-04-25 15:14 | 25.26919 | 55.34217 | 895 ft | 187 kts | 303° |
| 2026-04-25 15:14 | 25.27612 | 55.32966 | 1382 ft | 191 kts | 302° |
| 2026-04-25 15:14 | 25.28328 | 55.31679 | 1751 ft | 200 kts | 303° |
| 2026-04-25 15:14 | 25.29034 | 55.30366 | 2281 ft | 196 kts | 296° |
| 2026-04-25 15:15 | 25.29222 | 55.28888 | 2637 ft | 201 kts | 258° |
| 2026-04-25 15:15 | 25.28680 | 55.27455 | 3025 ft | 203 kts | 248° |
| 2026-04-25 15:15 | 25.28082 | 55.26026 | 3409 ft | 206 kts | 248° |
| 2026-04-25 15:15 | 25.27484 | 55.24602 | 3891 ft | 204 kts | 247° |
| 2026-04-25 15:16 | 25.26883 | 55.23182 | 4346 ft | 204 kts | 247° |
| 2026-04-25 15:16 | 25.26282 | 55.21764 | 4787 ft | 203 kts | 246° |
| 2026-04-25 15:16 | 25.24992 | 55.18724 | 5284 ft | 231 kts | 246° |
| 2026-04-25 15:17 | 25.22402 | 55.16661 | 5922 ft | 257 kts | 183° |
| 2026-04-25 15:17 | 25.20588 | 55.16775 | 6275 ft | 264 kts | 176° |
| 2026-04-25 15:17 | 25.18822 | 55.17350 | 6679 ft | 271 kts | 147° |
| 2026-04-25 15:18 | 25.17541 | 55.18885 | 6928 ft | 285 kts | 118° |
| 2026-04-25 15:18 | 25.15698 | 55.22895 | 7790 ft | 297 kts | 118° |
| 2026-04-25 15:18 | 25.14735 | 55.24920 | 8444 ft | 297 kts | 119° |
| 2026-04-25 15:19 | 25.13768 | 55.26939 | 9102 ft | 298 kts | 119° |
| 2026-04-25 15:19 | 25.13116 | 55.28305 | 9586 ft | 298 kts | 120° |
| 2026-04-25 15:19 | 25.11822 | 55.30997 | 10341 ft | 301 kts | 120° |
| 2026-04-25 15:19 | 25.10835 | 55.33050 | 10899 ft | 304 kts | 119° |
| 2026-04-25 15:20 | 25.09911 | 55.35158 | 11540 ft | 307 kts | 116° |
| 2026-04-25 15:20 | 25.09038 | 55.37319 | 12212 ft | 310 kts | 116° |
| 2026-04-25 15:20 | 25.08155 | 55.39498 | 12917 ft | 313 kts | 116° |
| 2026-04-25 15:20 | 25.07255 | 55.41701 | 13631 ft | 316 kts | 116° |
| 2026-04-25 15:21 | 25.06373 | 55.43951 | 13996 ft | 333 kts | 115° |
| 2026-04-25 15:21 | 25.05441 | 55.46388 | 14139 ft | 356 kts | 114° |
| 2026-04-25 15:21 | 25.04453 | 55.48980 | 14303 ft | 378 kts | 114° |
| 2026-04-25 15:21 | 25.03401 | 55.51721 | 14478 ft | 397 kts | 115° |
| 2026-04-25 15:22 | 25.02301 | 55.54574 | 14853 ft | 410 kts | 115° |
| 2026-04-25 15:22 | 25.01065 | 55.57438 | 15338 ft | 416 kts | 121° |
| 2026-04-25 15:22 | 24.99568 | 55.60185 | 15947 ft | 420 kts | 124° |
| 2026-04-25 15:22 | 24.97991 | 55.62909 | 16583 ft | 424 kts | 124° |
| 2026-04-25 15:23 | 24.96430 | 55.65680 | 17174 ft | 428 kts | 123° |
| 2026-04-25 15:23 | 24.94881 | 55.68517 | 17771 ft | 434 kts | 123° |
| 2026-04-25 15:23 | 24.93287 | 55.71362 | 18329 ft | 438 kts | 126° |
| 2026-04-25 15:23 | 24.91511 | 55.74103 | 18836 ft | 441 kts | 129° |
| 2026-04-25 15:24 | 24.89649 | 55.76807 | 19365 ft | 444 kts | 129° |
| 2026-04-25 15:24 | 24.87773 | 55.79538 | 19923 ft | 447 kts | 129° |
| 2026-04-25 15:24 | 24.85918 | 55.82299 | 20526 ft | 449 kts | 128° |
| 2026-04-25 15:24 | 24.84694 | 55.84141 | 20903 ft | 451 kts | 128° |
| 2026-04-25 15:25 | 24.82195 | 55.87889 | 21613 ft | 456 kts | 128° |
| 2026-04-25 15:25 | 24.80313 | 55.90676 | 22120 ft | 460 kts | 128° |
| 2026-04-25 15:25 | 24.78387 | 55.93516 | 22633 ft | 464 kts | 129° |
| 2026-04-25 15:25 | 24.76246 | 55.96172 | 23115 ft | 464 kts | 138° |
| 2026-04-25 15:26 | 24.73831 | 55.98548 | 23569 ft | 467 kts | 141° |
| 2026-04-25 15:26 | 24.71362 | 56.00904 | 23961 ft | 471 kts | 140° |
| 2026-04-25 15:26 | 24.68927 | 56.03335 | 24412 ft | 474 kts | 139° |
| 2026-04-25 15:26 | 24.66508 | 56.05820 | 24818 ft | 477 kts | 139° |
| 2026-04-25 15:27 | 24.64085 | 56.08318 | 25261 ft | 478 kts | 139° |
| 2026-04-25 15:27 | 24.61644 | 56.10825 | 25704 ft | 481 kts | 139° |
| 2026-04-25 15:27 | 24.56759 | 56.15904 | 26483 ft | 488 kts | 135° |
| 2026-04-25 15:28 | 24.54493 | 56.18711 | 26870 ft | 491 kts | 132° |
| 2026-04-25 15:28 | 24.52276 | 56.21577 | 27242 ft | 494 kts | 132° |
| 2026-04-25 15:28 | 24.50041 | 56.24470 | 27621 ft | 497 kts | 132° |
| 2026-04-25 15:28 | 24.47792 | 56.27364 | 27977 ft | 499 kts | 133° |
| 2026-04-25 15:29 | 24.45525 | 56.30265 | 28304 ft | 502 kts | 132° |
| 2026-04-25 15:29 | 24.43266 | 56.33141 | 28598 ft | 505 kts | 133° |
| 2026-04-25 15:29 | 24.40965 | 56.36062 | 28908 ft | 507 kts | 133° |
| 2026-04-25 15:29 | 24.38648 | 56.39002 | 29197 ft | 510 kts | 133° |
| 2026-04-25 15:30 | 24.36322 | 56.41954 | 29550 ft | 511 kts | 133° |
| 2026-04-25 15:30 | 24.34002 | 56.44898 | 29977 ft | 510 kts | 133° |
| 2026-04-25 15:30 | 24.31685 | 56.47836 | 30356 ft | 509 kts | 133° |
| 2026-04-25 15:30 | 24.29394 | 56.50802 | 30712 ft | 510 kts | 130° |
| 2026-04-25 15:31 | 24.27263 | 56.53932 | 30832 ft | 515 kts | 128° |
| 2026-04-25 15:31 | 24.23073 | 56.60330 | 30866 ft | 513 kts | 128° |
| 2026-04-25 15:32 | 24.18942 | 56.66613 | 30891 ft | 510 kts | 128° |
| 2026-04-25 15:32 | 24.14770 | 56.72891 | 30913 ft | 509 kts | 128° |
| 2026-04-25 15:33 | 24.08494 | 56.82311 | 30926 ft | 510 kts | 128° |
| 2026-04-25 15:33 | 24.03669 | 56.87851 | 30930 ft | 501 kts | 148° |
| 2026-04-25 15:34 | 24.00644 | 56.89708 | 30931 ft | 498 kts | 159° |
| 2026-04-25 15:34 | 23.97421 | 56.90894 | 30913 ft | 491 kts | 169° |
| 2026-04-25 15:34 | 23.91828 | 56.92268 | 30928 ft | 493 kts | 169° |
| 2026-04-25 15:35 | 23.80696 | 56.95169 | 30930 ft | 497 kts | 168° |
| 2026-04-25 15:36 | 23.70570 | 56.97890 | 30950 ft | 500 kts | 168° |
| 2026-04-25 15:36 | 23.63806 | 56.99704 | 30942 ft | 498 kts | 168° |
| 2026-04-25 15:37 | 23.57126 | 57.01491 | 30962 ft | 496 kts | 168° |
| 2026-04-25 15:37 | 23.50432 | 57.03278 | 30968 ft | 494 kts | 168° |
| 2026-04-25 15:38 | 23.43759 | 57.05058 | 30979 ft | 493 kts | 168° |
| 2026-04-25 15:38 | 23.37006 | 57.05999 | 30980 ft | 488 kts | 183° |
| 2026-04-25 15:39 | 23.30255 | 57.05104 | 31256 ft | 490 kts | 194° |
| 2026-04-25 15:39 | 23.26929 | 57.04277 | 31572 ft | 491 kts | 195° |
| 2026-04-25 15:39 | 23.23599 | 57.03450 | 31905 ft | 491 kts | 195° |
| 2026-04-25 15:40 | 23.19109 | 57.02363 | 31953 ft | 494 kts | 194° |
| 2026-04-25 15:40 | 23.10209 | 57.00275 | 31964 ft | 488 kts | 194° |
| 2026-04-25 15:41 | 23.03626 | 56.98738 | 31973 ft | 486 kts | 194° |
| 2026-04-25 15:41 | 22.97020 | 56.97184 | 31960 ft | 486 kts | 194° |
| 2026-04-25 15:42 | 22.90393 | 56.95599 | 31969 ft | 489 kts | 194° |
| 2026-04-25 15:42 | 22.83984 | 56.93342 | 31929 ft | 483 kts | 216° |
| 2026-04-25 15:43 | 22.81429 | 56.91015 | 31943 ft | 480 kts | 230° |
| 2026-04-25 15:43 | 22.79496 | 56.88084 | 31936 ft | 477 kts | 243° |
| 2026-04-25 15:43 | 22.76537 | 56.81639 | 31934 ft | 479 kts | 245° |
| 2026-04-25 15:44 | 22.73519 | 56.75171 | 31923 ft | 482 kts | 244° |
| 2026-04-25 15:44 | 22.70438 | 56.68720 | 31904 ft | 481 kts | 244° |
| 2026-04-25 15:45 | 22.67347 | 56.62296 | 31892 ft | 479 kts | 244° |
| 2026-04-25 15:45 | 22.65307 | 56.58060 | 31893 ft | 478 kts | 244° |
| 2026-04-25 15:46 | 22.61226 | 56.49587 | 31887 ft | 476 kts | 244° |
| 2026-04-25 15:46 | 22.58169 | 56.43244 | 31890 ft | 475 kts | 244° |
| 2026-04-25 15:47 | 22.55111 | 56.36912 | 31886 ft | 474 kts | 244° |
| 2026-04-25 15:47 | 22.52046 | 56.30587 | 31886 ft | 475 kts | 244° |
| 2026-04-25 15:48 | 22.48974 | 56.24261 | 31879 ft | 474 kts | 244° |
| 2026-04-25 15:48 | 22.45906 | 56.17949 | 31877 ft | 474 kts | 244° |
| 2026-04-25 15:49 | 22.42851 | 56.11666 | 31880 ft | 474 kts | 244° |
| 2026-04-25 15:49 | 22.39781 | 56.05361 | 31879 ft | 474 kts | 244° |
| 2026-04-25 15:50 | 22.36706 | 55.99061 | 31874 ft | 474 kts | 244° |
| 2026-04-25 15:50 | 22.33616 | 55.92777 | 31873 ft | 474 kts | 244° |
| 2026-04-25 15:51 | 22.31546 | 55.88570 | 31873 ft | 474 kts | 244° |
| 2026-04-25 15:51 | 22.27427 | 55.80202 | 31875 ft | 474 kts | 244° |
| 2026-04-25 15:52 | 22.24349 | 55.73954 | 31873 ft | 474 kts | 243° |
| 2026-04-25 15:52 | 22.21251 | 55.67660 | 31869 ft | 475 kts | 243° |
| 2026-04-25 15:53 | 22.18156 | 55.61364 | 31868 ft | 475 kts | 245° |
| 2026-04-25 15:53 | 22.15906 | 55.54696 | 31867 ft | 473 kts | 257° |
| 2026-04-25 15:54 | 22.14986 | 55.48895 | 31867 ft | 471 kts | 265° |
| 2026-04-25 15:54 | 22.14359 | 55.40662 | 31863 ft | 471 kts | 266° |
| 2026-04-25 15:55 | 22.13913 | 55.34809 | 31867 ft | 471 kts | 266° |
| 2026-04-25 15:55 | 22.13350 | 55.27769 | 31865 ft | 471 kts | 265° |
| 2026-04-25 15:56 | 22.12673 | 55.19592 | 31867 ft | 471 kts | 266° |
| 2026-04-25 15:56 | 22.12178 | 55.13691 | 31862 ft | 471 kts | 265° |
| 2026-04-25 15:57 | 22.11590 | 55.06693 | 31864 ft | 471 kts | 265° |
| 2026-04-25 15:57 | 22.10996 | 54.99656 | 31855 ft | 471 kts | 266° |
| 2026-04-25 15:58 | 22.10399 | 54.92618 | 31862 ft | 472 kts | 266° |
| 2026-04-25 15:58 | 22.09799 | 54.85569 | 31860 ft | 472 kts | 266° |
| 2026-04-25 15:59 | 22.09196 | 54.78518 | 31870 ft | 472 kts | 265° |
| 2026-04-25 15:59 | 22.08589 | 54.71468 | 31868 ft | 472 kts | 265° |
| 2026-04-25 16:00 | 22.08082 | 54.65610 | 31867 ft | 472 kts | 265° |
| 2026-04-25 16:00 | 22.07369 | 54.57415 | 31871 ft | 472 kts | 265° |
| 2026-04-25 16:01 | 22.06754 | 54.50370 | 31869 ft | 472 kts | 265° |
| 2026-04-25 16:01 | 22.06136 | 54.43328 | 31872 ft | 471 kts | 265° |
| 2026-04-25 16:02 | 22.05515 | 54.36296 | 31870 ft | 471 kts | 265° |
| 2026-04-25 16:02 | 22.04892 | 54.29276 | 31869 ft | 470 kts | 265° |
| 2026-04-25 16:03 | 22.04270 | 54.22299 | 31879 ft | 470 kts | 266° |
| 2026-04-25 16:03 | 22.03642 | 54.15278 | 31868 ft | 470 kts | 266° |
| 2026-04-25 16:04 | 22.03012 | 54.08271 | 31875 ft | 469 kts | 266° |
| 2026-04-25 16:04 | 22.02380 | 54.01276 | 31878 ft | 469 kts | 266° |
| 2026-04-25 16:05 | 22.01744 | 53.94287 | 31883 ft | 468 kts | 265° |
| 2026-04-25 16:06 | 22.00790 | 53.83842 | 31874 ft | 466 kts | 265° |
| 2026-04-25 16:06 | 22.00155 | 53.76937 | 31879 ft | 465 kts | 265° |
| 2026-04-25 16:07 | 21.99514 | 53.69994 | 31886 ft | 464 kts | 265° |
| 2026-04-25 16:07 | 21.98872 | 53.63075 | 31879 ft | 464 kts | 265° |
| 2026-04-25 16:08 | 21.98228 | 53.56160 | 31878 ft | 464 kts | 265° |
| 2026-04-25 16:08 | 21.97580 | 53.49243 | 31881 ft | 464 kts | 265° |
| 2026-04-25 16:09 | 21.96930 | 53.42328 | 31879 ft | 464 kts | 265° |
| 2026-04-25 16:09 | 21.96279 | 53.35444 | 31882 ft | 464 kts | 265° |
| 2026-04-25 16:10 | 21.95622 | 53.28519 | 31880 ft | 465 kts | 265° |
| 2026-04-25 16:10 | 21.94961 | 53.21588 | 31885 ft | 465 kts | 265° |
| 2026-04-25 16:11 | 21.94298 | 53.14659 | 31884 ft | 465 kts | 265° |
| 2026-04-25 16:11 | 21.93630 | 53.07724 | 31882 ft | 465 kts | 265° |
| 2026-04-25 16:12 | 21.92965 | 53.00841 | 31884 ft | 465 kts | 265° |
| 2026-04-25 16:12 | 21.92294 | 52.93916 | 31882 ft | 465 kts | 265° |
| 2026-04-25 16:13 | 21.91618 | 52.86983 | 31885 ft | 465 kts | 265° |
| 2026-04-25 16:13 | 21.90940 | 52.80048 | 31886 ft | 466 kts | 265° |
| 2026-04-25 16:14 | 21.90368 | 52.73099 | 31880 ft | 465 kts | 270° |
| 2026-04-25 16:14 | 21.90766 | 52.66152 | 31888 ft | 464 kts | 278° |
| 2026-04-25 16:15 | 21.91993 | 52.59359 | 31896 ft | 464 kts | 281° |
| 2026-04-25 16:15 | 21.93286 | 52.52546 | 31896 ft | 464 kts | 281° |
| 2026-04-25 16:16 | 21.94555 | 52.45740 | 31893 ft | 463 kts | 281° |
| 2026-04-25 16:16 | 21.95797 | 52.38983 | 31893 ft | 462 kts | 280° |
| 2026-04-25 16:17 | 21.97042 | 52.32169 | 31891 ft | 462 kts | 280° |
| 2026-04-25 16:17 | 21.98281 | 52.25367 | 31881 ft | 463 kts | 280° |
| 2026-04-25 16:18 | 21.99521 | 52.18538 | 31902 ft | 466 kts | 280° |
| 2026-04-25 16:18 | 22.00765 | 52.11673 | 31903 ft | 468 kts | 280° |
| 2026-04-25 16:19 | 22.02014 | 52.04772 | 31900 ft | 470 kts | 280° |
| 2026-04-25 16:19 | 22.03255 | 51.97882 | 31910 ft | 471 kts | 280° |
| 2026-04-25 16:20 | 22.05130 | 51.87477 | 31903 ft | 470 kts | 280° |
| 2026-04-25 16:21 | 22.06988 | 51.77109 | 31909 ft | 468 kts | 280° |
| 2026-04-25 16:21 | 22.08209 | 51.70272 | 31909 ft | 466 kts | 280° |
| 2026-04-25 16:22 | 22.09431 | 51.63414 | 31915 ft | 465 kts | 280° |
| 2026-04-25 16:22 | 22.10648 | 51.56569 | 31913 ft | 464 kts | 280° |
| 2026-04-25 16:23 | 22.11859 | 51.49736 | 31914 ft | 463 kts | 280° |
| 2026-04-25 16:23 | 22.13066 | 51.42912 | 31927 ft | 463 kts | 280° |
| 2026-04-25 16:24 | 22.14270 | 51.36092 | 31920 ft | 462 kts | 280° |
| 2026-04-25 16:24 | 22.15468 | 51.29282 | 31920 ft | 461 kts | 280° |
| 2026-04-25 16:25 | 22.16652 | 51.22537 | 31915 ft | 460 kts | 280° |
| 2026-04-25 16:25 | 22.17839 | 51.15754 | 31926 ft | 460 kts | 280° |
| 2026-04-25 16:26 | 22.19023 | 51.08974 | 31922 ft | 460 kts | 280° |
| 2026-04-25 16:26 | 22.20207 | 51.02176 | 31917 ft | 460 kts | 280° |
| 2026-04-25 16:27 | 22.21387 | 50.95384 | 31924 ft | 460 kts | 280° |
| 2026-04-25 16:27 | 22.22567 | 50.88578 | 31926 ft | 461 kts | 280° |
| 2026-04-25 16:28 | 22.23741 | 50.81787 | 31932 ft | 460 kts | 279° |
| 2026-04-25 16:28 | 22.24905 | 50.75037 | 31933 ft | 459 kts | 279° |
| 2026-04-25 16:29 | 22.26071 | 50.68258 | 31921 ft | 459 kts | 279° |
| 2026-04-25 16:29 | 22.27232 | 50.61488 | 31922 ft | 458 kts | 279° |
| 2026-04-25 16:30 | 22.28194 | 50.55863 | 31923 ft | 458 kts | 279° |
| 2026-04-25 16:30 | 22.29543 | 50.47959 | 31930 ft | 457 kts | 279° |
| 2026-04-25 16:31 | 22.30687 | 50.41240 | 31927 ft | 457 kts | 279° |
| 2026-04-25 16:31 | 22.31834 | 50.34481 | 31929 ft | 457 kts | 279° |
| 2026-04-25 16:32 | 22.32979 | 50.27724 | 31932 ft | 457 kts | 279° |
| 2026-04-25 16:32 | 22.34119 | 50.20972 | 31930 ft | 456 kts | 279° |
| 2026-04-25 16:33 | 22.35254 | 50.14232 | 31924 ft | 456 kts | 279° |
| 2026-04-25 16:33 | 22.36386 | 50.07495 | 31924 ft | 455 kts | 279° |
| 2026-04-25 16:34 | 22.37513 | 50.00768 | 31930 ft | 454 kts | 279° |
| 2026-04-25 16:34 | 22.38630 | 49.94081 | 31928 ft | 454 kts | 279° |
| 2026-04-25 16:35 | 22.39749 | 49.87369 | 31927 ft | 454 kts | 279° |
| 2026-04-25 16:35 | 22.40866 | 49.80654 | 31924 ft | 454 kts | 279° |
| 2026-04-25 16:36 | 22.41978 | 49.73944 | 31923 ft | 454 kts | 279° |
| 2026-04-25 16:36 | 22.43088 | 49.67229 | 31924 ft | 453 kts | 279° |
| 2026-04-25 16:37 | 22.44189 | 49.60559 | 31920 ft | 453 kts | 279° |
| 2026-04-25 16:37 | 22.45291 | 49.53855 | 31927 ft | 453 kts | 279° |
| 2026-04-25 16:38 | 22.46393 | 49.47140 | 31920 ft | 453 kts | 279° |
| 2026-04-25 16:38 | 22.47489 | 49.40439 | 31926 ft | 452 kts | 279° |
| 2026-04-25 16:39 | 22.48582 | 49.33744 | 31925 ft | 452 kts | 279° |
| 2026-04-25 16:39 | 22.49670 | 49.27056 | 31932 ft | 451 kts | 279° |
| 2026-04-25 16:40 | 22.50747 | 49.20420 | 31931 ft | 451 kts | 279° |
| 2026-04-25 16:40 | 22.51828 | 49.13740 | 31923 ft | 451 kts | 279° |
| 2026-04-25 16:41 | 22.52907 | 49.07054 | 31915 ft | 450 kts | 279° |
| 2026-04-25 16:41 | 22.54337 | 48.98164 | 31929 ft | 451 kts | 279° |
| 2026-04-25 16:42 | 22.55413 | 48.91457 | 31930 ft | 453 kts | 279° |
| 2026-04-25 16:42 | 22.56664 | 48.83638 | 31933 ft | 454 kts | 279° |
| 2026-04-25 16:43 | 22.57562 | 48.78003 | 31929 ft | 454 kts | 279° |
| 2026-04-25 16:43 | 22.58634 | 48.71266 | 31940 ft | 454 kts | 279° |
| 2026-04-25 16:44 | 22.59703 | 48.64527 | 31923 ft | 454 kts | 279° |
| 2026-04-25 16:44 | 22.60762 | 48.57836 | 31934 ft | 453 kts | 279° |
| 2026-04-25 16:45 | 22.61821 | 48.51117 | 31926 ft | 453 kts | 279° |
| 2026-04-25 16:45 | 22.62879 | 48.44395 | 31929 ft | 452 kts | 279° |
| 2026-04-25 16:46 | 22.63931 | 48.37688 | 31935 ft | 452 kts | 279° |
| 2026-04-25 16:46 | 22.64803 | 48.32115 | 31929 ft | 452 kts | 279° |
| 2026-04-25 16:47 | 22.66027 | 48.24265 | 31922 ft | 452 kts | 279° |
| 2026-04-25 16:47 | 22.67072 | 48.17549 | 31936 ft | 452 kts | 279° |
| 2026-04-25 16:48 | 22.68113 | 48.10835 | 31927 ft | 451 kts | 279° |
| 2026-04-25 16:48 | 22.69135 | 48.04178 | 31932 ft | 451 kts | 278° |
| 2026-04-25 16:49 | 22.69768 | 47.97436 | 31937 ft | 450 kts | 275° |
| 2026-04-25 16:49 | 22.70310 | 47.90681 | 31936 ft | 449 kts | 275° |
| 2026-04-25 16:50 | 22.70858 | 47.83938 | 31933 ft | 449 kts | 275° |
| 2026-04-25 16:50 | 22.71413 | 47.77195 | 31936 ft | 449 kts | 275° |
| 2026-04-25 16:51 | 22.71967 | 47.70455 | 31940 ft | 449 kts | 275° |
| 2026-04-25 16:51 | 22.72425 | 47.64853 | 31952 ft | 449 kts | 275° |
| 2026-04-25 16:52 | 22.73066 | 47.56975 | 31946 ft | 448 kts | 275° |
| 2026-04-25 16:52 | 22.73609 | 47.50256 | 31945 ft | 447 kts | 275° |
| 2026-04-25 16:53 | 22.74414 | 47.40238 | 31951 ft | 446 kts | 275° |
| 2026-04-25 16:54 | 22.74948 | 47.33544 | 31953 ft | 446 kts | 275° |
| 2026-04-25 16:54 | 22.75479 | 47.26845 | 31962 ft | 446 kts | 275° |
| 2026-04-25 16:55 | 22.76010 | 47.20132 | 31961 ft | 447 kts | 275° |
| 2026-04-25 16:55 | 22.76541 | 47.13420 | 31961 ft | 447 kts | 275° |
| 2026-04-25 16:56 | 22.77080 | 47.06700 | 31961 ft | 448 kts | 275° |
| 2026-04-25 16:56 | 22.77616 | 46.99983 | 31967 ft | 447 kts | 275° |
| 2026-04-25 16:57 | 22.78148 | 46.93274 | 31966 ft | 446 kts | 275° |
| 2026-04-25 16:57 | 22.78671 | 46.86623 | 31968 ft | 445 kts | 275° |
| 2026-04-25 16:58 | 22.79195 | 46.79938 | 31971 ft | 444 kts | 275° |
| 2026-04-25 16:58 | 22.79714 | 46.73269 | 31972 ft | 444 kts | 275° |
| 2026-04-25 16:59 | 22.80231 | 46.66590 | 31979 ft | 444 kts | 275° |
| 2026-04-25 16:59 | 22.80745 | 46.59919 | 31985 ft | 444 kts | 275° |
| 2026-04-25 17:00 | 22.81257 | 46.53233 | 31994 ft | 445 kts | 275° |
| 2026-04-25 17:00 | 22.81763 | 46.46598 | 32009 ft | 444 kts | 275° |
| 2026-04-25 17:01 | 22.82269 | 46.39923 | 31995 ft | 444 kts | 274° |
| 2026-04-25 17:01 | 22.82767 | 46.33254 | 31993 ft | 443 kts | 275° |
| 2026-04-25 17:02 | 22.83256 | 46.26604 | 31993 ft | 442 kts | 275° |
| 2026-04-25 17:02 | 22.83743 | 46.19959 | 31986 ft | 441 kts | 275° |
| 2026-04-25 17:03 | 22.84225 | 46.13336 | 31986 ft | 440 kts | 275° |
| 2026-04-25 17:03 | 22.84704 | 46.06746 | 31986 ft | 441 kts | 275° |
| 2026-04-25 17:04 | 22.85182 | 46.00125 | 31974 ft | 440 kts | 275° |
| 2026-04-25 17:04 | 22.85657 | 45.93499 | 31983 ft | 440 kts | 275° |
| 2026-04-25 17:05 | 22.86129 | 45.86886 | 31982 ft | 440 kts | 275° |
| 2026-04-25 17:05 | 22.86831 | 45.76962 | 31969 ft | 440 kts | 275° |
| 2026-04-25 17:06 | 22.87295 | 45.70358 | 31979 ft | 439 kts | 275° |
| 2026-04-25 17:06 | 22.87756 | 45.63753 | 31978 ft | 439 kts | 275° |
| 2026-04-25 17:07 | 22.88215 | 45.57146 | 31976 ft | 439 kts | 275° |
| 2026-04-25 17:07 | 22.88671 | 45.50541 | 31976 ft | 439 kts | 275° |
| 2026-04-25 17:08 | 22.89124 | 45.43927 | 31978 ft | 440 kts | 275° |
| 2026-04-25 17:08 | 22.89575 | 45.37311 | 31994 ft | 440 kts | 275° |
| 2026-04-25 17:09 | 22.90024 | 45.30693 | 31986 ft | 440 kts | 275° |
| 2026-04-25 17:09 | 22.90469 | 45.24071 | 31980 ft | 440 kts | 275° |
| 2026-04-25 17:10 | 22.90911 | 45.17465 | 31974 ft | 439 kts | 275° |
| 2026-04-25 17:10 | 22.91348 | 45.10898 | 31977 ft | 439 kts | 275° |
| 2026-04-25 17:11 | 22.91786 | 45.04288 | 31980 ft | 439 kts | 275° |
| 2026-04-25 17:11 | 22.92222 | 44.97673 | 31965 ft | 439 kts | 274° |
| 2026-04-25 17:12 | 22.92653 | 44.91087 | 31967 ft | 440 kts | 274° |
| 2026-04-25 17:12 | 22.93084 | 44.84454 | 31976 ft | 441 kts | 274° |
| 2026-04-25 17:13 | 22.93371 | 44.80018 | 31982 ft | 441 kts | 274° |
| 2026-04-25 17:13 | 22.93947 | 44.71171 | 31979 ft | 442 kts | 276° |
| 2026-04-25 17:14 | 22.95006 | 44.64649 | 31987 ft | 442 kts | 283° |
| 2026-04-25 17:14 | 22.96882 | 44.58299 | 31995 ft | 442 kts | 287° |
| 2026-04-25 17:15 | 22.98862 | 44.51984 | 31978 ft | 442 kts | 287° |
| 2026-04-25 17:15 | 23.00826 | 44.45661 | 31980 ft | 441 kts | 287° |
| 2026-04-25 17:16 | 23.02778 | 44.39333 | 31981 ft | 441 kts | 287° |
| 2026-04-25 17:16 | 23.04721 | 44.33017 | 31977 ft | 441 kts | 287° |
| 2026-04-25 17:17 | 23.06659 | 44.26705 | 31983 ft | 440 kts | 287° |
| 2026-04-25 17:17 | 23.08594 | 44.20393 | 31986 ft | 440 kts | 287° |
| 2026-04-25 17:18 | 23.10514 | 44.14120 | 31987 ft | 440 kts | 287° |
| 2026-04-25 17:18 | 23.12447 | 44.07799 | 31991 ft | 441 kts | 287° |
| 2026-04-25 17:19 | 23.14375 | 44.01479 | 31999 ft | 440 kts | 287° |
| 2026-04-25 17:19 | 23.16303 | 43.95155 | 31996 ft | 441 kts | 287° |
| 2026-04-25 17:20 | 23.18217 | 43.88862 | 31994 ft | 441 kts | 287° |
| 2026-04-25 17:20 | 23.20137 | 43.82537 | 32024 ft | 440 kts | 287° |
| 2026-04-25 17:21 | 23.22054 | 43.76217 | 32014 ft | 440 kts | 287° |
| 2026-04-25 17:21 | 23.23959 | 43.69921 | 32021 ft | 439 kts | 287° |
| 2026-04-25 17:22 | 23.25234 | 43.65705 | 32035 ft | 439 kts | 287° |
| 2026-04-25 17:22 | 23.27768 | 43.57312 | 32031 ft | 438 kts | 286° |
| 2026-04-25 17:23 | 23.29661 | 43.51021 | 32041 ft | 437 kts | 286° |
| 2026-04-25 17:23 | 23.31547 | 43.44738 | 32041 ft | 437 kts | 286° |
| 2026-04-25 17:24 | 23.33430 | 43.38455 | 32048 ft | 437 kts | 286° |
| 2026-04-25 17:24 | 23.35310 | 43.32171 | 32060 ft | 436 kts | 286° |
| 2026-04-25 17:25 | 23.37190 | 43.25880 | 32059 ft | 437 kts | 286° |
| 2026-04-25 17:25 | 23.39067 | 43.19587 | 32068 ft | 436 kts | 286° |
| 2026-04-25 17:26 | 23.40937 | 43.13306 | 32064 ft | 436 kts | 286° |
| 2026-04-25 17:26 | 23.42798 | 43.07022 | 32071 ft | 436 kts | 286° |
| 2026-04-25 17:27 | 23.44640 | 43.00776 | 32072 ft | 436 kts | 286° |
| 2026-04-25 17:27 | 23.45881 | 42.96566 | 32074 ft | 436 kts | 286° |
| 2026-04-25 17:28 | 23.48046 | 42.89211 | 32066 ft | 436 kts | 286° |
| 2026-04-25 17:28 | 23.50192 | 42.81908 | 32072 ft | 436 kts | 286° |
| 2026-04-25 17:29 | 23.51737 | 42.76643 | 32071 ft | 436 kts | 286° |
| 2026-04-25 17:29 | 23.53580 | 42.70384 | 32071 ft | 436 kts | 286° |
| 2026-04-25 17:30 | 23.55441 | 42.64088 | 32075 ft | 436 kts | 286° |
| 2026-04-25 17:30 | 23.57297 | 42.57795 | 32074 ft | 436 kts | 285° |
| 2026-04-25 17:31 | 23.59149 | 42.51501 | 32076 ft | 436 kts | 285° |
| 2026-04-25 17:31 | 23.60996 | 42.45212 | 32079 ft | 435 kts | 285° |
| 2026-04-25 17:32 | 23.62841 | 42.38919 | 32084 ft | 435 kts | 285° |
| 2026-04-25 17:32 | 23.64670 | 42.32669 | 32066 ft | 435 kts | 285° |
| 2026-04-25 17:33 | 23.66503 | 42.26385 | 32069 ft | 434 kts | 285° |
| 2026-04-25 17:33 | 23.68317 | 42.20092 | 32070 ft | 434 kts | 285° |
| 2026-04-25 17:34 | 23.70123 | 42.13807 | 32067 ft | 434 kts | 285° |
| 2026-04-25 17:34 | 23.71933 | 42.07506 | 32058 ft | 434 kts | 285° |
| 2026-04-25 17:35 | 23.73727 | 42.01253 | 32054 ft | 434 kts | 285° |
| 2026-04-25 17:35 | 23.75539 | 41.94967 | 32056 ft | 434 kts | 285° |
| 2026-04-25 17:36 | 23.77370 | 41.88682 | 32052 ft | 434 kts | 285° |
| 2026-04-25 17:36 | 23.79196 | 41.82396 | 32046 ft | 434 kts | 285° |
| 2026-04-25 17:37 | 23.81016 | 41.76112 | 32048 ft | 433 kts | 285° |
| 2026-04-25 17:37 | 23.82821 | 41.69836 | 32042 ft | 433 kts | 285° |
| 2026-04-25 17:38 | 23.84317 | 41.64620 | 32034 ft | 433 kts | 285° |
| 2026-04-25 17:38 | 23.86418 | 41.57291 | 32030 ft | 432 kts | 285° |
| 2026-04-25 17:39 | 23.88209 | 41.51025 | 32031 ft | 432 kts | 284° |
| 2026-04-25 17:39 | 23.89993 | 41.44764 | 32021 ft | 431 kts | 284° |
| 2026-04-25 17:40 | 23.91762 | 41.38552 | 32016 ft | 430 kts | 284° |
| 2026-04-25 17:40 | 23.93540 | 41.32296 | 32027 ft | 430 kts | 284° |
| 2026-04-25 17:41 | 23.95313 | 41.26042 | 32002 ft | 430 kts | 284° |
| 2026-04-25 17:41 | 23.97083 | 41.19789 | 32002 ft | 430 kts | 284° |
| 2026-04-25 17:42 | 23.98837 | 41.13583 | 32001 ft | 430 kts | 284° |
| 2026-04-25 17:42 | 24.00601 | 41.07328 | 31994 ft | 430 kts | 284° |
| 2026-04-25 17:43 | 24.02364 | 41.01067 | 31994 ft | 431 kts | 284° |
| 2026-04-25 17:43 | 24.04129 | 40.94790 | 31981 ft | 431 kts | 284° |
| 2026-04-25 17:44 | 24.05877 | 40.88556 | 31981 ft | 431 kts | 284° |
| 2026-04-25 17:44 | 24.07629 | 40.82294 | 31971 ft | 430 kts | 284° |
| 2026-04-25 17:45 | 24.09083 | 40.77090 | 31973 ft | 429 kts | 284° |
| 2026-04-25 17:45 | 24.11121 | 40.69780 | 31970 ft | 428 kts | 284° |
| 2026-04-25 17:46 | 24.12857 | 40.63543 | 31968 ft | 428 kts | 284° |
| 2026-04-25 17:46 | 24.14593 | 40.57298 | 31965 ft | 428 kts | 284° |
| 2026-04-25 17:47 | 24.16497 | 40.51111 | 31962 ft | 431 kts | 288° |
| 2026-04-25 17:47 | 24.19166 | 40.45249 | 31979 ft | 433 kts | 293° |
| 2026-04-25 17:48 | 24.23383 | 40.36501 | 31947 ft | 431 kts | 292° |
| 2026-04-25 17:49 | 24.26164 | 40.30681 | 31949 ft | 430 kts | 292° |
| 2026-04-25 17:49 | 24.28935 | 40.24869 | 31967 ft | 429 kts | 292° |
| 2026-04-25 17:50 | 24.31698 | 40.19067 | 31957 ft | 429 kts | 292° |
| 2026-04-25 17:50 | 24.34462 | 40.13258 | 31955 ft | 430 kts | 292° |
| 2026-04-25 17:51 | 24.37211 | 40.07473 | 31952 ft | 430 kts | 292° |
| 2026-04-25 17:51 | 24.39975 | 40.01649 | 31968 ft | 430 kts | 292° |
| 2026-04-25 17:52 | 24.42740 | 39.95817 | 31960 ft | 431 kts | 292° |
| 2026-04-25 17:52 | 24.45505 | 39.89977 | 31961 ft | 431 kts | 292° |
| 2026-04-25 17:53 | 24.48249 | 39.84172 | 31966 ft | 431 kts | 292° |
| 2026-04-25 17:53 | 24.51012 | 39.78324 | 31978 ft | 431 kts | 292° |
| 2026-04-25 17:54 | 24.54141 | 39.72673 | 31971 ft | 439 kts | 302° |
| 2026-04-25 17:54 | 24.58312 | 39.67698 | 31970 ft | 446 kts | 309° |
| 2026-04-25 17:55 | 24.63294 | 39.63512 | 31955 ft | 452 kts | 316° |
| 2026-04-25 17:55 | 24.68424 | 39.59506 | 31949 ft | 452 kts | 316° |
| 2026-04-25 17:56 | 24.73525 | 39.55484 | 31953 ft | 451 kts | 315° |
| 2026-04-25 17:56 | 24.78600 | 39.51438 | 31947 ft | 450 kts | 315° |
| 2026-04-25 17:57 | 24.83658 | 39.47387 | 31938 ft | 450 kts | 315° |
| 2026-04-25 17:57 | 24.88682 | 39.43361 | 31943 ft | 448 kts | 315° |
| 2026-04-25 17:58 | 24.93717 | 39.39323 | 31939 ft | 447 kts | 315° |
| 2026-04-25 17:58 | 24.98747 | 39.35284 | 31934 ft | 447 kts | 315° |
| 2026-04-25 17:59 | 25.03767 | 39.31251 | 31944 ft | 446 kts | 315° |
| 2026-04-25 17:59 | 25.08793 | 39.27208 | 31934 ft | 447 kts | 315° |
| 2026-04-25 18:00 | 25.13815 | 39.23163 | 31937 ft | 446 kts | 315° |
| 2026-04-25 18:00 | 25.18793 | 39.19076 | 31952 ft | 442 kts | 311° |
| 2026-04-25 18:01 | 25.23053 | 39.14314 | 31947 ft | 432 kts | 303° |
| 2026-04-25 18:01 | 25.26581 | 39.09064 | 31944 ft | 425 kts | 296° |
| 2026-04-25 18:02 | 25.29781 | 39.03559 | 31929 ft | 426 kts | 295° |
| 2026-04-25 18:02 | 25.32975 | 38.98040 | 31934 ft | 426 kts | 296° |
| 2026-04-25 18:03 | 25.36189 | 38.92512 | 31911 ft | 428 kts | 296° |
| 2026-04-25 18:03 | 25.39421 | 38.86972 | 31924 ft | 429 kts | 296° |
| 2026-04-25 18:04 | 25.42653 | 38.81435 | 31913 ft | 428 kts | 296° |
| 2026-04-25 18:04 | 25.45876 | 38.75900 | 31905 ft | 427 kts | 296° |
| 2026-04-25 18:05 | 25.49093 | 38.70374 | 31879 ft | 427 kts | 296° |
| 2026-04-25 18:05 | 25.52297 | 38.64862 | 31909 ft | 425 kts | 295° |
| 2026-04-25 18:06 | 25.55502 | 38.59338 | 31885 ft | 426 kts | 295° |
| 2026-04-25 18:06 | 25.58688 | 38.53840 | 31884 ft | 427 kts | 295° |
| 2026-04-25 18:07 | 25.61899 | 38.48294 | 31902 ft | 427 kts | 295° |
| 2026-04-25 18:07 | 25.65111 | 38.42741 | 31893 ft | 428 kts | 295° |
| 2026-04-25 18:08 | 25.68320 | 38.37187 | 31912 ft | 428 kts | 295° |
| 2026-04-25 18:08 | 25.71529 | 38.31625 | 31896 ft | 427 kts | 295° |
| 2026-04-25 18:09 | 25.74712 | 38.26102 | 31886 ft | 427 kts | 295° |
| 2026-04-25 18:09 | 25.77907 | 38.20552 | 31877 ft | 426 kts | 295° |
| 2026-04-25 18:10 | 25.81093 | 38.15010 | 31863 ft | 424 kts | 295° |
| 2026-04-25 18:10 | 25.84257 | 38.09506 | 31909 ft | 423 kts | 295° |
| 2026-04-25 18:11 | 25.87415 | 38.03989 | 31896 ft | 425 kts | 295° |
| 2026-04-25 18:11 | 25.90589 | 37.98443 | 31890 ft | 426 kts | 295° |
| 2026-04-25 18:12 | 25.93235 | 37.93827 | 31918 ft | 427 kts | 295° |
| 2026-04-25 18:12 | 25.96940 | 37.87341 | 31928 ft | 426 kts | 295° |
| 2026-04-25 18:13 | 25.99546 | 37.81513 | 31932 ft | 418 kts | 285° |
| 2026-04-25 18:13 | 26.01292 | 37.75382 | 31932 ft | 414 kts | 278° |
| 2026-04-25 18:14 | 26.02586 | 37.65955 | 31914 ft | 411 kts | 275° |
| 2026-04-25 18:14 | 26.03290 | 37.60673 | 31937 ft | 413 kts | 275° |
| 2026-04-25 18:15 | 26.04150 | 37.54359 | 31930 ft | 414 kts | 275° |
| 2026-04-25 18:15 | 26.05008 | 37.48029 | 31926 ft | 414 kts | 275° |
| 2026-04-25 18:16 | 26.05853 | 37.41679 | 31914 ft | 416 kts | 275° |
| 2026-04-25 18:17 | 26.07108 | 37.32209 | 31909 ft | 413 kts | 275° |
| 2026-04-25 18:17 | 26.07941 | 37.25898 | 31905 ft | 411 kts | 275° |
| 2026-04-25 18:18 | 26.08770 | 37.19598 | 31904 ft | 411 kts | 275° |
| 2026-04-25 18:18 | 26.09599 | 37.13291 | 31891 ft | 412 kts | 275° |
| 2026-04-25 18:19 | 26.10425 | 37.06980 | 31892 ft | 412 kts | 275° |
| 2026-04-25 18:19 | 26.11243 | 37.00697 | 31887 ft | 413 kts | 275° |
| 2026-04-25 18:20 | 26.12066 | 36.94369 | 31896 ft | 413 kts | 275° |
| 2026-04-25 18:20 | 26.12885 | 36.88039 | 31856 ft | 413 kts | 275° |
| 2026-04-25 18:21 | 26.13702 | 36.81711 | 31867 ft | 412 kts | 274° |
| 2026-04-25 18:21 | 26.14514 | 36.75393 | 31873 ft | 412 kts | 274° |
| 2026-04-25 18:22 | 26.15323 | 36.69071 | 31870 ft | 412 kts | 274° |
| 2026-04-25 18:22 | 26.16131 | 36.62744 | 31864 ft | 412 kts | 274° |
| 2026-04-25 18:23 | 26.16930 | 36.56460 | 31861 ft | 412 kts | 274° |
| 2026-04-25 18:23 | 26.18532 | 36.50308 | 31861 ft | 421 kts | 289° |
| 2026-04-25 18:24 | 26.21500 | 36.44609 | 31855 ft | 433 kts | 300° |
| 2026-04-25 18:24 | 26.25681 | 36.39664 | 31856 ft | 439 kts | 306° |
| 2026-04-25 18:25 | 26.29955 | 36.34863 | 31879 ft | 439 kts | 306° |
| 2026-04-25 18:25 | 26.34226 | 36.30000 | 31865 ft | 438 kts | 305° |
| 2026-04-25 18:26 | 26.38460 | 36.25127 | 31868 ft | 437 kts | 305° |
| 2026-04-25 18:26 | 26.42690 | 36.20237 | 31856 ft | 437 kts | 305° |
| 2026-04-25 18:27 | 26.46909 | 36.15355 | 31864 ft | 436 kts | 305° |
| 2026-04-25 18:27 | 26.51125 | 36.10471 | 31862 ft | 436 kts | 305° |
| 2026-04-25 18:28 | 26.55335 | 36.05591 | 31874 ft | 436 kts | 305° |
| 2026-04-25 18:28 | 26.59523 | 36.00730 | 31876 ft | 436 kts | 305° |
| 2026-04-25 18:29 | 26.65849 | 35.93378 | 31903 ft | 437 kts | 305° |
| 2026-04-25 18:30 | 26.74257 | 35.83585 | 31873 ft | 437 kts | 305° |
| 2026-04-25 18:30 | 26.78469 | 35.78673 | 31878 ft | 437 kts | 305° |
| 2026-04-25 18:31 | 26.82691 | 35.73740 | 32044 ft | 442 kts | 305° |
| 2026-04-25 18:31 | 26.84811 | 35.71263 | 32461 ft | 439 kts | 304° |
| 2026-04-25 18:31 | 26.86916 | 35.68808 | 33003 ft | 434 kts | 304° |
| 2026-04-25 18:32 | 26.88993 | 35.66386 | 33537 ft | 429 kts | 303° |
| 2026-04-25 18:32 | 26.91056 | 35.63974 | 33905 ft | 428 kts | 303° |
| 2026-04-25 18:32 | 26.95212 | 35.59090 | 33875 ft | 432 kts | 303° |
| 2026-04-25 18:33 | 26.99336 | 35.54256 | 33878 ft | 427 kts | 303° |
| 2026-04-25 18:33 | 27.03428 | 35.49449 | 33944 ft | 425 kts | 303° |
| 2026-04-25 18:34 | 27.07515 | 35.44640 | 33899 ft | 425 kts | 303° |
| 2026-04-25 18:34 | 27.11573 | 35.39862 | 33886 ft | 425 kts | 303° |
| 2026-04-25 18:35 | 27.15652 | 35.35054 | 33888 ft | 425 kts | 303° |
| 2026-04-25 18:35 | 27.19737 | 35.30234 | 33891 ft | 425 kts | 303° |
| 2026-04-25 18:36 | 27.23815 | 35.25416 | 33894 ft | 426 kts | 303° |
| 2026-04-25 18:36 | 27.27898 | 35.20586 | 33900 ft | 426 kts | 303° |
| 2026-04-25 18:37 | 27.31989 | 35.15743 | 33892 ft | 427 kts | 303° |
| 2026-04-25 18:37 | 27.36079 | 35.10896 | 33892 ft | 427 kts | 303° |
| 2026-04-25 18:38 | 27.40145 | 35.06069 | 33895 ft | 427 kts | 303° |
| 2026-04-25 18:38 | 27.44241 | 35.01201 | 33894 ft | 428 kts | 303° |
| 2026-04-25 18:39 | 27.48346 | 34.96320 | 33902 ft | 429 kts | 303° |
| 2026-04-25 18:39 | 27.52501 | 34.91492 | 33884 ft | 432 kts | 306° |
| 2026-04-25 18:40 | 27.56886 | 34.86856 | 33883 ft | 432 kts | 307° |
| 2026-04-25 18:40 | 27.61289 | 34.82237 | 33877 ft | 432 kts | 306° |
| 2026-04-25 18:41 | 27.65677 | 34.77607 | 33877 ft | 431 kts | 306° |
| 2026-04-25 18:41 | 27.70052 | 34.72972 | 33893 ft | 431 kts | 306° |
| 2026-04-25 18:42 | 27.72950 | 34.69896 | 33873 ft | 431 kts | 306° |
| 2026-04-25 18:42 | 27.78769 | 34.63713 | 33880 ft | 433 kts | 307° |
| 2026-04-25 18:43 | 27.83159 | 34.59044 | 33880 ft | 433 kts | 307° |
| 2026-04-25 18:43 | 27.87554 | 34.54364 | 33879 ft | 434 kts | 307° |
| 2026-04-25 18:44 | 27.91950 | 34.49677 | 33882 ft | 434 kts | 307° |
| 2026-04-25 18:44 | 27.96352 | 34.44980 | 33880 ft | 435 kts | 307° |
| 2026-04-25 18:45 | 28.00614 | 34.40232 | 33880 ft | 428 kts | 302° |
| 2026-04-25 18:45 | 28.04355 | 34.35047 | 33883 ft | 424 kts | 300° |
| 2026-04-25 18:46 | 28.08089 | 34.29855 | 33881 ft | 424 kts | 300° |
| 2026-04-25 18:46 | 28.11813 | 34.24695 | 33903 ft | 426 kts | 300° |
| 2026-04-25 18:47 | 28.15562 | 34.19493 | 33932 ft | 427 kts | 301° |
| 2026-04-25 18:47 | 28.19328 | 34.14265 | 33922 ft | 428 kts | 301° |
| 2026-04-25 18:48 | 28.23105 | 34.09023 | 33937 ft | 429 kts | 301° |
| 2026-04-25 18:48 | 28.26883 | 34.03763 | 33948 ft | 430 kts | 301° |
| 2026-04-25 18:49 | 28.30677 | 33.98486 | 33934 ft | 433 kts | 301° |
| 2026-04-25 18:49 | 28.34456 | 33.93201 | 33923 ft | 435 kts | 301° |
| 2026-04-25 18:50 | 28.38259 | 33.87898 | 33915 ft | 432 kts | 301° |
| 2026-04-25 18:50 | 28.42032 | 33.82629 | 33925 ft | 428 kts | 301° |
| 2026-04-25 18:51 | 28.44536 | 33.79120 | 33927 ft | 427 kts | 301° |
| 2026-04-25 18:51 | 28.49487 | 33.72177 | 33916 ft | 421 kts | 301° |
| 2026-04-25 18:52 | 28.53206 | 33.66966 | 33938 ft | 431 kts | 301° |
| 2026-04-25 18:52 | 28.57009 | 33.61596 | 33982 ft | 438 kts | 301° |
| 2026-04-25 18:53 | 28.60853 | 33.56190 | 33908 ft | 435 kts | 302° |
| 2026-04-25 18:53 | 28.64636 | 33.50860 | 33942 ft | 431 kts | 301° |
| 2026-04-25 18:54 | 28.70297 | 33.42877 | 33926 ft | 432 kts | 302° |
| 2026-04-25 18:55 | 28.74084 | 33.37533 | 33911 ft | 433 kts | 301° |
| 2026-04-25 18:55 | 28.77862 | 33.32191 | 33917 ft | 433 kts | 301° |
| 2026-04-25 18:56 | 28.81651 | 33.26825 | 33918 ft | 434 kts | 301° |
| 2026-04-25 18:56 | 28.85410 | 33.21497 | 33916 ft | 434 kts | 301° |
| 2026-04-25 18:57 | 28.89197 | 33.16122 | 33914 ft | 434 kts | 301° |
| 2026-04-25 18:57 | 28.92987 | 33.10736 | 33905 ft | 434 kts | 301° |
| 2026-04-25 18:58 | 28.96768 | 33.05355 | 33907 ft | 434 kts | 301° |
| 2026-04-25 18:58 | 29.02442 | 32.97267 | 33906 ft | 434 kts | 301° |
| 2026-04-25 18:59 | 29.09978 | 32.86499 | 33915 ft | 434 kts | 301° |